sensor_id;sensor_type;location;lat;lon;timestamp;P1;durP1;ratioP1;P2;durP2;ratioP2
70301;SDS011;57706;56.326;43.882;2023-08-06T00:00:25;104.93;;;65.57;;
70301;SDS011;57706;56.326;43.882;2023-08-06T00:02:51;103.60;;;63.15;;
70301;SDS011;57706;56.326;43.882;2023-08-06T00:05:17;104.05;;;65.68;;
70301;SDS011;57706;56.326;43.882;2023-08-06T00:07:44;99.30;;;61.50;;
70301;SDS011;57706;56.326;43.882;2023-08-06T00:10:10;100.60;;;62.13;;
70301;SDS011;57706;56.326;43.882;2023-08-06T00:12:36;102.22;;;64.97;;
70301;SDS011;57706;56.326;43.882;2023-08-06T00:15:02;103.90;;;63.78;;
70301;SDS011;57706;56.326;43.882;2023-08-06T00:17:30;98.95;;;62.45;;
70301;SDS011;57706;56.326;43.882;2023-08-06T00:19:56;105.70;;;62.42;;
70301;SDS011;57706;56.326;43.882;2023-08-06T00:22:22;99.70;;;63.33;;
70301;SDS011;57706;56.326;43.882;2023-08-06T00:24:48;96.60;;;61.13;;
70301;SDS011;57706;56.326;43.882;2023-08-06T00:27:14;95.82;;;59.10;;
70301;SDS011;57706;56.326;43.882;2023-08-06T00:29:39;99.38;;;63.72;;
70301;SDS011;57706;56.326;43.882;2023-08-06T00:32:05;97.53;;;61.47;;
70301;SDS011;57706;56.326;43.882;2023-08-06T00:34:31;103.20;;;65.00;;
70301;SDS011;57706;56.326;43.882;2023-08-06T00:36:57;102.70;;;63.25;;
70301;SDS011;57706;56.326;43.882;2023-08-06T00:39:23;99.45;;;61.50;;
70301;SDS011;57706;56.326;43.882;2023-08-06T00:41:49;93.65;;;60.38;;
70301;SDS011;57706;56.326;43.882;2023-08-06T00:44:15;97.72;;;62.95;;
70301;SDS011;57706;56.326;43.882;2023-08-06T00:46:40;95.93;;;60.92;;
70301;SDS011;57706;56.326;43.882;2023-08-06T00:49:06;96.18;;;60.53;;
70301;SDS011;57706;56.326;43.882;2023-08-06T00:51:32;99.93;;;60.95;;
70301;SDS011;57706;56.326;43.882;2023-08-06T00:54:01;120.05;;;69.60;;
70301;SDS011;57706;56.326;43.882;2023-08-06T00:56:27;143.02;;;84.68;;
70301;SDS011;57706;56.326;43.882;2023-08-06T00:58:54;116.40;;;73.10;;
70301;SDS011;57706;56.326;43.882;2023-08-06T01:01:20;107.18;;;67.97;;
70301;SDS011;57706;56.326;43.882;2023-08-06T01:03:46;96.82;;;62.13;;
70301;SDS011;57706;56.326;43.882;2023-08-06T01:06:12;109.32;;;65.63;;
70301;SDS011;57706;56.326;43.882;2023-08-06T01:08:48;93.28;;;56.05;;
70301;SDS011;57706;56.326;43.882;2023-08-06T01:15:05;96.97;;;55.38;;
70301;SDS011;57706;56.326;43.882;2023-08-06T01:17:33;88.38;;;53.65;;
70301;SDS011;57706;56.326;43.882;2023-08-06T01:20:00;90.95;;;54.78;;
70301;SDS011;57706;56.326;43.882;2023-08-06T01:22:26;78.85;;;51.38;;
70301;SDS011;57706;56.326;43.882;2023-08-06T01:24:52;85.35;;;52.60;;
70301;SDS011;57706;56.326;43.882;2023-08-06T01:27:32;81.13;;;50.17;;
70301;SDS011;57706;56.326;43.882;2023-08-06T01:30:07;73.88;;;45.33;;
70301;SDS011;57706;56.326;43.882;2023-08-06T01:32:39;67.35;;;42.63;;
70301;SDS011;57706;56.326;43.882;2023-08-06T01:35:09;69.63;;;45.30;;
70301;SDS011;57706;56.326;43.882;2023-08-06T01:37:36;78.75;;;47.38;;
70301;SDS011;57706;56.326;43.882;2023-08-06T01:40:09;66.30;;;42.78;;
70301;SDS011;57706;56.326;43.882;2023-08-06T01:42:37;63.30;;;39.90;;
70301;SDS011;57706;56.326;43.882;2023-08-06T01:45:03;64.55;;;40.00;;
70301;SDS011;57706;56.326;43.882;2023-08-06T01:47:30;69.53;;;39.40;;
70301;SDS011;57706;56.326;43.882;2023-08-06T01:49:56;60.92;;;39.00;;
70301;SDS011;57706;56.326;43.882;2023-08-06T01:52:22;54.50;;;33.63;;
70301;SDS011;57706;56.326;43.882;2023-08-06T01:54:48;52.00;;;35.97;;
70301;SDS011;57706;56.326;43.882;2023-08-06T01:57:14;66.30;;;38.53;;
70301;SDS011;57706;56.326;43.882;2023-08-06T01:59:39;56.17;;;36.58;;
70301;SDS011;57706;56.326;43.882;2023-08-06T02:02:05;55.92;;;34.38;;
70301;SDS011;57706;56.326;43.882;2023-08-06T02:04:31;58.13;;;35.67;;
70301;SDS011;57706;56.326;43.882;2023-08-06T02:06:57;56.75;;;35.08;;
70301;SDS011;57706;56.326;43.882;2023-08-06T02:09:23;57.92;;;35.15;;
70301;SDS011;57706;56.326;43.882;2023-08-06T02:11:48;58.55;;;35.85;;
70301;SDS011;57706;56.326;43.882;2023-08-06T02:14:14;57.28;;;35.25;;
70301;SDS011;57706;56.326;43.882;2023-08-06T02:16:40;56.47;;;35.60;;
70301;SDS011;57706;56.326;43.882;2023-08-06T02:19:06;50.38;;;33.38;;
70301;SDS011;57706;56.326;43.882;2023-08-06T02:21:32;52.97;;;32.53;;
70301;SDS011;57706;56.326;43.882;2023-08-06T02:23:58;59.67;;;34.33;;
70301;SDS011;57706;56.326;43.882;2023-08-06T02:26:24;52.20;;;33.45;;
70301;SDS011;57706;56.326;43.882;2023-08-06T02:28:50;44.42;;;28.88;;
70301;SDS011;57706;56.326;43.882;2023-08-06T02:31:16;48.50;;;29.67;;
70301;SDS011;57706;56.326;43.882;2023-08-06T02:33:42;55.17;;;32.33;;
70301;SDS011;57706;56.326;43.882;2023-08-06T02:36:07;46.45;;;28.15;;
70301;SDS011;57706;56.326;43.882;2023-08-06T02:38:33;39.90;;;25.48;;
70301;SDS011;57706;56.326;43.882;2023-08-06T02:41:03;50.50;;;29.35;;
70301;SDS011;57706;56.326;43.882;2023-08-06T02:43:29;45.95;;;28.13;;
70301;SDS011;57706;56.326;43.882;2023-08-06T02:45:59;47.55;;;23.77;;
70301;SDS011;57706;56.326;43.882;2023-08-06T02:48:26;43.67;;;26.63;;
70301;SDS011;57706;56.326;43.882;2023-08-06T02:50:52;41.58;;;22.40;;
70301;SDS011;57706;56.326;43.882;2023-08-06T02:53:18;45.65;;;24.38;;
70301;SDS011;57706;56.326;43.882;2023-08-06T02:55:46;38.85;;;25.40;;
70301;SDS011;57706;56.326;43.882;2023-08-06T02:58:15;39.53;;;24.83;;
70301;SDS011;57706;56.326;43.882;2023-08-06T03:01:03;40.97;;;24.83;;
70301;SDS011;57706;56.326;43.882;2023-08-06T03:03:37;42.47;;;27.77;;
70301;SDS011;57706;56.326;43.882;2023-08-06T03:06:05;45.13;;;28.73;;
70301;SDS011;57706;56.326;43.882;2023-08-06T03:08:38;46.65;;;31.55;;
70301;SDS011;57706;56.326;43.882;2023-08-06T03:11:04;47.75;;;30.05;;
70301;SDS011;57706;56.326;43.882;2023-08-06T03:13:30;48.53;;;30.38;;
70301;SDS011;57706;56.326;43.882;2023-08-06T03:15:58;42.60;;;25.70;;
70301;SDS011;57706;56.326;43.882;2023-08-06T03:18:26;48.60;;;29.60;;
70301;SDS011;57706;56.326;43.882;2023-08-06T03:20:52;45.97;;;28.05;;
70301;SDS011;57706;56.326;43.882;2023-08-06T03:23:19;44.83;;;29.00;;
70301;SDS011;57706;56.326;43.882;2023-08-06T03:25:45;46.70;;;29.10;;
70301;SDS011;57706;56.326;43.882;2023-08-06T03:28:12;54.40;;;29.83;;
70301;SDS011;57706;56.326;43.882;2023-08-06T03:30:39;54.75;;;30.15;;
70301;SDS011;57706;56.326;43.882;2023-08-06T03:33:06;48.00;;;30.55;;
70301;SDS011;57706;56.326;43.882;2023-08-06T03:35:32;50.55;;;30.02;;
70301;SDS011;57706;56.326;43.882;2023-08-06T03:37:58;44.47;;;28.02;;
70301;SDS011;57706;56.326;43.882;2023-08-06T03:40:24;49.83;;;30.10;;
70301;SDS011;57706;56.326;43.882;2023-08-06T03:42:50;52.10;;;28.95;;
70301;SDS011;57706;56.326;43.882;2023-08-06T03:45:16;44.47;;;28.67;;
70301;SDS011;57706;56.326;43.882;2023-08-06T03:47:43;43.47;;;30.00;;
70301;SDS011;57706;56.326;43.882;2023-08-06T03:50:08;43.78;;;28.33;;
70301;SDS011;57706;56.326;43.882;2023-08-06T03:52:35;47.22;;;29.75;;
70301;SDS011;57706;56.326;43.882;2023-08-06T03:55:01;44.50;;;27.88;;
70301;SDS011;57706;56.326;43.882;2023-08-06T03:57:29;43.58;;;28.65;;
70301;SDS011;57706;56.326;43.882;2023-08-06T03:59:55;47.03;;;29.42;;
70301;SDS011;57706;56.326;43.882;2023-08-06T04:02:24;41.00;;;25.77;;
70301;SDS011;57706;56.326;43.882;2023-08-06T04:04:50;41.58;;;23.35;;
70301;SDS011;57706;56.326;43.882;2023-08-06T04:07:18;36.45;;;24.17;;
70301;SDS011;57706;56.326;43.882;2023-08-06T04:09:51;36.22;;;25.00;;
70301;SDS011;57706;56.326;43.882;2023-08-06T04:12:22;37.40;;;24.77;;
70301;SDS011;57706;56.326;43.882;2023-08-06T04:14:48;45.38;;;26.92;;
70301;SDS011;57706;56.326;43.882;2023-08-06T04:17:14;38.35;;;24.48;;
70301;SDS011;57706;56.326;43.882;2023-08-06T04:19:40;32.63;;;21.45;;
70301;SDS011;57706;56.326;43.882;2023-08-06T04:22:06;37.70;;;24.85;;
70301;SDS011;57706;56.326;43.882;2023-08-06T04:24:33;38.22;;;23.27;;
70301;SDS011;57706;56.326;43.882;2023-08-06T04:26:58;37.95;;;22.77;;
70301;SDS011;57706;56.326;43.882;2023-08-06T04:29:25;36.95;;;24.13;;
70301;SDS011;57706;56.326;43.882;2023-08-06T04:31:51;34.67;;;22.75;;
70301;SDS011;57706;56.326;43.882;2023-08-06T04:34:17;38.47;;;21.77;;
70301;SDS011;57706;56.326;43.882;2023-08-06T04:36:42;35.03;;;21.50;;
70301;SDS011;57706;56.326;43.882;2023-08-06T04:39:09;34.70;;;20.02;;
70301;SDS011;57706;56.326;43.882;2023-08-06T04:41:35;26.33;;;18.83;;
70301;SDS011;57706;56.326;43.882;2023-08-06T04:44:00;27.02;;;17.23;;
70301;SDS011;57706;56.326;43.882;2023-08-06T04:46:27;27.67;;;19.45;;
70301;SDS011;57706;56.326;43.882;2023-08-06T04:48:53;28.30;;;18.30;;
70301;SDS011;57706;56.326;43.882;2023-08-06T04:51:18;31.00;;;18.23;;
70301;SDS011;57706;56.326;43.882;2023-08-06T04:53:44;33.97;;;19.25;;
70301;SDS011;57706;56.326;43.882;2023-08-06T04:56:10;29.45;;;18.63;;
70301;SDS011;57706;56.326;43.882;2023-08-06T04:58:35;40.90;;;22.00;;
70301;SDS011;57706;56.326;43.882;2023-08-06T05:01:01;24.67;;;18.05;;
70301;SDS011;57706;56.326;43.882;2023-08-06T05:03:27;30.33;;;18.58;;
70301;SDS011;57706;56.326;43.882;2023-08-06T05:05:53;29.70;;;18.05;;
70301;SDS011;57706;56.326;43.882;2023-08-06T05:08:18;32.80;;;18.85;;
70301;SDS011;57706;56.326;43.882;2023-08-06T05:10:45;27.40;;;17.70;;
70301;SDS011;57706;56.326;43.882;2023-08-06T05:13:11;25.40;;;15.30;;
70301;SDS011;57706;56.326;43.882;2023-08-06T05:15:37;22.77;;;13.95;;
70301;SDS011;57706;56.326;43.882;2023-08-06T05:18:05;24.63;;;14.07;;
70301;SDS011;57706;56.326;43.882;2023-08-06T05:20:31;25.92;;;13.90;;
70301;SDS011;57706;56.326;43.882;2023-08-06T05:22:57;25.83;;;15.77;;
70301;SDS011;57706;56.326;43.882;2023-08-06T05:25:22;21.85;;;12.43;;
70301;SDS011;57706;56.326;43.882;2023-08-06T05:27:48;19.08;;;11.57;;
70301;SDS011;57706;56.326;43.882;2023-08-06T05:30:14;21.60;;;12.13;;
70301;SDS011;57706;56.326;43.882;2023-08-06T05:32:40;19.20;;;12.27;;
70301;SDS011;57706;56.326;43.882;2023-08-06T05:35:06;25.92;;;16.13;;
70301;SDS011;57706;56.326;43.882;2023-08-06T05:37:32;30.73;;;15.63;;
70301;SDS011;57706;56.326;43.882;2023-08-06T05:39:58;24.45;;;14.48;;
70301;SDS011;57706;56.326;43.882;2023-08-06T05:42:24;29.52;;;17.15;;
70301;SDS011;57706;56.326;43.882;2023-08-06T05:44:49;26.65;;;16.48;;
70301;SDS011;57706;56.326;43.882;2023-08-06T05:47:15;25.63;;;16.30;;
70301;SDS011;57706;56.326;43.882;2023-08-06T05:49:41;25.23;;;13.18;;
70301;SDS011;57706;56.326;43.882;2023-08-06T05:52:07;14.90;;;8.88;;
70301;SDS011;57706;56.326;43.882;2023-08-06T05:54:33;15.27;;;7.75;;
70301;SDS011;57706;56.326;43.882;2023-08-06T05:56:59;17.73;;;8.45;;
70301;SDS011;57706;56.326;43.882;2023-08-06T05:59:25;17.35;;;8.25;;
70301;SDS011;57706;56.326;43.882;2023-08-06T06:01:51;11.05;;;7.60;;
70301;SDS011;57706;56.326;43.882;2023-08-06T06:04:17;15.55;;;8.35;;
70301;SDS011;57706;56.326;43.882;2023-08-06T06:06:42;10.55;;;7.03;;
70301;SDS011;57706;56.326;43.882;2023-08-06T06:09:08;11.50;;;6.25;;
70301;SDS011;57706;56.326;43.882;2023-08-06T06:11:34;17.05;;;7.60;;
70301;SDS011;57706;56.326;43.882;2023-08-06T06:14:00;16.77;;;7.07;;
70301;SDS011;57706;56.326;43.882;2023-08-06T06:16:26;11.23;;;6.80;;
70301;SDS011;57706;56.326;43.882;2023-08-06T06:18:51;11.98;;;7.78;;
70301;SDS011;57706;56.326;43.882;2023-08-06T06:21:17;12.23;;;6.35;;
70301;SDS011;57706;56.326;43.882;2023-08-06T06:23:43;11.75;;;6.43;;
70301;SDS011;57706;56.326;43.882;2023-08-06T06:26:09;14.52;;;5.78;;
70301;SDS011;57706;56.326;43.882;2023-08-06T06:28:35;12.20;;;5.88;;
70301;SDS011;57706;56.326;43.882;2023-08-06T06:31:01;8.98;;;5.68;;
70301;SDS011;57706;56.326;43.882;2023-08-06T06:33:27;7.00;;;5.20;;
70301;SDS011;57706;56.326;43.882;2023-08-06T06:35:53;7.97;;;5.30;;
70301;SDS011;57706;56.326;43.882;2023-08-06T06:38:19;12.30;;;5.53;;
70301;SDS011;57706;56.326;43.882;2023-08-06T06:40:53;7.57;;;5.13;;
70301;SDS011;57706;56.326;43.882;2023-08-06T06:43:19;8.07;;;4.70;;
70301;SDS011;57706;56.326;43.882;2023-08-06T06:45:45;4.93;;;4.00;;
70301;SDS011;57706;56.326;43.882;2023-08-06T06:48:11;10.00;;;3.85;;
70301;SDS011;57706;56.326;43.882;2023-08-06T06:50:36;5.18;;;3.63;;
70301;SDS011;57706;56.326;43.882;2023-08-06T06:53:04;4.30;;;2.92;;
70301;SDS011;57706;56.326;43.882;2023-08-06T06:55:30;9.05;;;3.38;;
70301;SDS011;57706;56.326;43.882;2023-08-06T06:57:56;7.78;;;3.30;;
70301;SDS011;57706;56.326;43.882;2023-08-06T07:00:22;6.60;;;2.92;;
70301;SDS011;57706;56.326;43.882;2023-08-06T07:02:47;3.88;;;3.10;;
70301;SDS011;57706;56.326;43.882;2023-08-06T07:05:13;6.88;;;3.10;;
70301;SDS011;57706;56.326;43.882;2023-08-06T07:07:39;5.45;;;3.50;;
70301;SDS011;57706;56.326;43.882;2023-08-06T07:10:05;4.53;;;2.83;;
70301;SDS011;57706;56.326;43.882;2023-08-06T07:12:31;3.17;;;2.88;;
70301;SDS011;57706;56.326;43.882;2023-08-06T07:14:57;5.63;;;2.40;;
70301;SDS011;57706;56.326;43.882;2023-08-06T07:17:23;4.10;;;2.47;;
70301;SDS011;57706;56.326;43.882;2023-08-06T07:19:48;7.07;;;2.67;;
70301;SDS011;57706;56.326;43.882;2023-08-06T07:22:14;3.78;;;3.47;;
70301;SDS011;57706;56.326;43.882;2023-08-06T07:24:40;7.55;;;3.33;;
70301;SDS011;57706;56.326;43.882;2023-08-06T07:27:06;3.60;;;2.47;;
70301;SDS011;57706;56.326;43.882;2023-08-06T07:29:32;6.35;;;2.45;;
70301;SDS011;57706;56.326;43.882;2023-08-06T07:31:58;7.65;;;2.53;;
70301;SDS011;57706;56.326;43.882;2023-08-06T07:34:23;2.97;;;2.47;;
70301;SDS011;57706;56.326;43.882;2023-08-06T07:36:49;5.78;;;2.78;;
70301;SDS011;57706;56.326;43.882;2023-08-06T07:39:15;3.97;;;2.38;;
70301;SDS011;57706;56.326;43.882;2023-08-06T07:41:42;8.23;;;2.25;;
70301;SDS011;57706;56.326;43.882;2023-08-06T07:44:08;7.78;;;2.00;;
70301;SDS011;57706;56.326;43.882;2023-08-06T07:46:33;7.78;;;2.17;;
70301;SDS011;57706;56.326;43.882;2023-08-06T07:48:59;7.63;;;2.38;;
70301;SDS011;57706;56.326;43.882;2023-08-06T07:51:25;3.28;;;2.28;;
70301;SDS011;57706;56.326;43.882;2023-08-06T07:53:51;4.13;;;2.15;;
70301;SDS011;57706;56.326;43.882;2023-08-06T07:56:17;4.68;;;2.70;;
70301;SDS011;57706;56.326;43.882;2023-08-06T07:58:43;8.98;;;2.65;;
70301;SDS011;57706;56.326;43.882;2023-08-06T08:01:09;4.50;;;2.03;;
70301;SDS011;57706;56.326;43.882;2023-08-06T08:03:35;8.45;;;3.03;;
70301;SDS011;57706;56.326;43.882;2023-08-06T08:06:01;6.55;;;2.38;;
70301;SDS011;57706;56.326;43.882;2023-08-06T08:08:27;6.25;;;2.50;;
70301;SDS011;57706;56.326;43.882;2023-08-06T08:10:53;5.70;;;2.45;;
70301;SDS011;57706;56.326;43.882;2023-08-06T08:13:20;4.10;;;2.22;;
70301;SDS011;57706;56.326;43.882;2023-08-06T08:15:46;5.35;;;2.90;;
70301;SDS011;57706;56.326;43.882;2023-08-06T08:18:12;5.82;;;3.08;;
70301;SDS011;57706;56.326;43.882;2023-08-06T08:20:38;4.97;;;2.88;;
70301;SDS011;57706;56.326;43.882;2023-08-06T08:23:03;7.32;;;2.50;;
70301;SDS011;57706;56.326;43.882;2023-08-06T08:25:29;4.88;;;2.47;;
70301;SDS011;57706;56.326;43.882;2023-08-06T08:27:57;6.35;;;2.70;;
70301;SDS011;57706;56.326;43.882;2023-08-06T08:30:23;3.97;;;3.08;;
70301;SDS011;57706;56.326;43.882;2023-08-06T08:32:50;8.48;;;2.40;;
70301;SDS011;57706;56.326;43.882;2023-08-06T08:35:16;5.13;;;3.47;;
70301;SDS011;57706;56.326;43.882;2023-08-06T08:37:42;7.72;;;3.17;;
70301;SDS011;57706;56.326;43.882;2023-08-06T08:40:09;9.00;;;3.83;;
70301;SDS011;57706;56.326;43.882;2023-08-06T08:42:36;3.80;;;2.83;;
70301;SDS011;57706;56.326;43.882;2023-08-06T08:45:04;6.22;;;3.50;;
70301;SDS011;57706;56.326;43.882;2023-08-06T08:47:32;4.55;;;2.35;;
70301;SDS011;57706;56.326;43.882;2023-08-06T08:49:58;5.13;;;2.80;;
70301;SDS011;57706;56.326;43.882;2023-08-06T08:52:25;3.33;;;3.03;;
70301;SDS011;57706;56.326;43.882;2023-08-06T08:54:55;3.53;;;2.53;;
70301;SDS011;57706;56.326;43.882;2023-08-06T08:57:21;3.67;;;2.55;;
70301;SDS011;57706;56.326;43.882;2023-08-06T08:59:47;3.03;;;2.83;;
70301;SDS011;57706;56.326;43.882;2023-08-06T09:02:14;3.10;;;2.80;;
70301;SDS011;57706;56.326;43.882;2023-08-06T09:04:41;5.90;;;2.67;;
70301;SDS011;57706;56.326;43.882;2023-08-06T09:07:09;5.25;;;2.85;;
70301;SDS011;57706;56.326;43.882;2023-08-06T09:09:38;4.65;;;2.47;;
70301;SDS011;57706;56.326;43.882;2023-08-06T09:12:13;4.72;;;3.35;;
70301;SDS011;57706;56.326;43.882;2023-08-06T09:14:40;4.07;;;2.65;;
70301;SDS011;57706;56.326;43.882;2023-08-06T09:17:07;8.07;;;2.65;;
70301;SDS011;57706;56.326;43.882;2023-08-06T09:19:34;2.72;;;2.53;;
70301;SDS011;57706;56.326;43.882;2023-08-06T09:22:00;3.30;;;2.38;;
70301;SDS011;57706;56.326;43.882;2023-08-06T09:24:26;8.13;;;2.45;;
70301;SDS011;57706;56.326;43.882;2023-08-06T09:26:52;2.78;;;2.50;;
70301;SDS011;57706;56.326;43.882;2023-08-06T09:29:18;2.60;;;2.20;;
70301;SDS011;57706;56.326;43.882;2023-08-06T09:34:17;4.50;;;2.75;;
70301;SDS011;57706;56.326;43.882;2023-08-06T09:36:49;4.93;;;2.75;;
70301;SDS011;57706;56.326;43.882;2023-08-06T09:39:17;4.13;;;2.88;;
70301;SDS011;57706;56.326;43.882;2023-08-06T09:41:44;3.80;;;2.40;;
70301;SDS011;57706;56.326;43.882;2023-08-06T09:44:21;4.03;;;2.65;;
70301;SDS011;57706;56.326;43.882;2023-08-06T09:46:49;4.60;;;2.75;;
70301;SDS011;57706;56.326;43.882;2023-08-06T09:49:26;3.28;;;2.40;;
70301;SDS011;57706;56.326;43.882;2023-08-06T09:51:58;3.92;;;3.00;;
70301;SDS011;57706;56.326;43.882;2023-08-06T09:54:26;2.72;;;2.53;;
70301;SDS011;57706;56.326;43.882;2023-08-06T09:56:54;3.20;;;2.35;;
70301;SDS011;57706;56.326;43.882;2023-08-06T09:59:20;2.42;;;2.22;;
70301;SDS011;57706;56.326;43.882;2023-08-06T10:01:46;3.28;;;2.85;;
70301;SDS011;57706;56.326;43.882;2023-08-06T10:04:13;5.00;;;2.42;;
70301;SDS011;57706;56.326;43.882;2023-08-06T10:06:46;2.47;;;2.28;;
70301;SDS011;57706;56.326;43.882;2023-08-06T10:09:13;5.28;;;2.15;;
70301;SDS011;57706;56.326;43.882;2023-08-06T10:11:39;2.35;;;2.13;;
70301;SDS011;57706;56.326;43.882;2023-08-06T10:16:54;5.05;;;2.30;;
70301;SDS011;57706;56.326;43.882;2023-08-06T10:19:23;3.92;;;2.85;;
70301;SDS011;57706;56.326;43.882;2023-08-06T10:22:11;7.72;;;2.30;;
70301;SDS011;57706;56.326;43.882;2023-08-06T10:24:53;2.25;;;2.00;;
70301;SDS011;57706;56.326;43.882;2023-08-06T10:27:28;3.13;;;2.08;;
70301;SDS011;57706;56.326;43.882;2023-08-06T10:32:55;5.18;;;2.30;;
70301;SDS011;57706;56.326;43.882;2023-08-06T10:35:47;3.50;;;2.13;;
70301;SDS011;57706;56.326;43.882;2023-08-06T10:40:52;2.63;;;2.53;;
70301;SDS011;57706;56.326;43.882;2023-08-06T10:45:54;6.82;;;2.63;;
70301;SDS011;57706;56.326;43.882;2023-08-06T10:48:37;2.83;;;2.63;;
70301;SDS011;57706;56.326;43.882;2023-08-06T10:51:08;2.08;;;1.90;;
70301;SDS011;57706;56.326;43.882;2023-08-06T10:53:43;3.88;;;2.10;;
70301;SDS011;57706;56.326;43.882;2023-08-06T10:56:19;3.47;;;2.40;;
70301;SDS011;57706;56.326;43.882;2023-08-06T10:58:51;3.67;;;3.38;;
70301;SDS011;57706;56.326;43.882;2023-08-06T11:01:19;4.20;;;2.70;;
70301;SDS011;57706;56.326;43.882;2023-08-06T11:03:46;6.20;;;3.25;;
70301;SDS011;57706;56.326;43.882;2023-08-06T11:06:18;7.10;;;2.53;;
70301;SDS011;57706;56.326;43.882;2023-08-06T11:09:03;2.88;;;2.60;;
70301;SDS011;57706;56.326;43.882;2023-08-06T11:11:29;2.15;;;1.95;;
70301;SDS011;57706;56.326;43.882;2023-08-06T11:13:54;3.55;;;1.92;;
70301;SDS011;57706;56.326;43.882;2023-08-06T11:16:21;3.40;;;2.03;;
70301;SDS011;57706;56.326;43.882;2023-08-06T11:18:51;5.75;;;2.35;;
70301;SDS011;57706;56.326;43.882;2023-08-06T11:21:20;3.70;;;2.03;;
70301;SDS011;57706;56.326;43.882;2023-08-06T11:23:46;4.40;;;2.35;;
70301;SDS011;57706;56.326;43.882;2023-08-06T11:26:12;3.97;;;2.35;;
70301;SDS011;57706;56.326;43.882;2023-08-06T11:28:38;3.60;;;2.60;;
70301;SDS011;57706;56.326;43.882;2023-08-06T11:31:03;6.05;;;2.42;;
70301;SDS011;57706;56.326;43.882;2023-08-06T11:33:29;4.30;;;2.13;;
70301;SDS011;57706;56.326;43.882;2023-08-06T11:35:57;5.10;;;2.53;;
70301;SDS011;57706;56.326;43.882;2023-08-06T11:38:27;3.17;;;2.25;;
70301;SDS011;57706;56.326;43.882;2023-08-06T11:40:54;2.40;;;1.90;;
70301;SDS011;57706;56.326;43.882;2023-08-06T11:43:21;5.53;;;2.00;;
70301;SDS011;57706;56.326;43.882;2023-08-06T11:45:49;3.65;;;2.05;;
70301;SDS011;57706;56.326;43.882;2023-08-06T11:48:16;6.28;;;2.20;;
70301;SDS011;57706;56.326;43.882;2023-08-06T11:50:44;4.93;;;2.40;;
70301;SDS011;57706;56.326;43.882;2023-08-06T11:53:12;2.70;;;1.92;;
70301;SDS011;57706;56.326;43.882;2023-08-06T11:55:39;2.63;;;2.08;;
70301;SDS011;57706;56.326;43.882;2023-08-06T11:58:06;4.00;;;2.20;;
70301;SDS011;57706;56.326;43.882;2023-08-06T12:00:32;3.95;;;2.03;;
70301;SDS011;57706;56.326;43.882;2023-08-06T12:02:59;3.97;;;2.03;;
70301;SDS011;57706;56.326;43.882;2023-08-06T12:05:29;8.40;;;1.90;;
70301;SDS011;57706;56.326;43.882;2023-08-06T12:07:56;4.40;;;1.73;;
70301;SDS011;57706;56.326;43.882;2023-08-06T12:10:24;5.20;;;1.77;;
70301;SDS011;57706;56.326;43.882;2023-08-06T12:12:52;3.95;;;1.63;;
70301;SDS011;57706;56.326;43.882;2023-08-06T12:15:19;2.35;;;1.75;;
70301;SDS011;57706;56.326;43.882;2023-08-06T12:17:45;2.22;;;1.77;;
70301;SDS011;57706;56.326;43.882;2023-08-06T12:20:11;4.25;;;1.70;;
70301;SDS011;57706;56.326;43.882;2023-08-06T12:22:37;30.52;;;2.28;;
70301;SDS011;57706;56.326;43.882;2023-08-06T12:25:06;7.93;;;1.80;;
70301;SDS011;57706;56.326;43.882;2023-08-06T12:30:01;4.05;;;2.10;;
70301;SDS011;57706;56.326;43.882;2023-08-06T12:32:35;2.33;;;1.80;;
70301;SDS011;57706;56.326;43.882;2023-08-06T12:35:01;4.25;;;1.83;;
70301;SDS011;57706;56.326;43.882;2023-08-06T12:37:33;2.17;;;1.98;;
70301;SDS011;57706;56.326;43.882;2023-08-06T12:40:00;2.17;;;1.63;;
70301;SDS011;57706;56.326;43.882;2023-08-06T12:42:26;1.92;;;1.75;;
70301;SDS011;57706;56.326;43.882;2023-08-06T12:44:52;5.80;;;1.88;;
70301;SDS011;57706;56.326;43.882;2023-08-06T12:47:18;4.32;;;1.92;;
70301;SDS011;57706;56.326;43.882;2023-08-06T12:49:44;6.50;;;2.08;;
70301;SDS011;57706;56.326;43.882;2023-08-06T12:52:10;3.78;;;1.98;;
70301;SDS011;57706;56.326;43.882;2023-08-06T12:54:38;5.03;;;2.00;;
70301;SDS011;57706;56.326;43.882;2023-08-06T12:57:04;2.58;;;1.50;;
70301;SDS011;57706;56.326;43.882;2023-08-06T12:59:31;2.05;;;1.75;;
70301;SDS011;57706;56.326;43.882;2023-08-06T13:02:07;3.85;;;1.90;;
70301;SDS011;57706;56.326;43.882;2023-08-06T13:04:32;2.72;;;1.83;;
70301;SDS011;57706;56.326;43.882;2023-08-06T13:06:59;2.00;;;1.58;;
70301;SDS011;57706;56.326;43.882;2023-08-06T13:09:25;3.67;;;1.60;;
70301;SDS011;57706;56.326;43.882;2023-08-06T13:11:53;3.20;;;1.73;;
70301;SDS011;57706;56.326;43.882;2023-08-06T13:14:18;3.38;;;1.90;;
70301;SDS011;57706;56.326;43.882;2023-08-06T13:16:44;8.45;;;1.90;;
70301;SDS011;57706;56.326;43.882;2023-08-06T13:19:11;6.07;;;2.38;;
70301;SDS011;57706;56.326;43.882;2023-08-06T13:24:07;3.08;;;2.03;;
70301;SDS011;57706;56.326;43.882;2023-08-06T13:26:33;3.25;;;1.52;;
70301;SDS011;57706;56.326;43.882;2023-08-06T13:29:00;1.98;;;1.75;;
70301;SDS011;57706;56.326;43.882;2023-08-06T13:31:27;4.68;;;1.75;;
70301;SDS011;57706;56.326;43.882;2023-08-06T13:33:54;2.45;;;1.80;;
70301;SDS011;57706;56.326;43.882;2023-08-06T13:36:24;1.80;;;1.60;;
70301;SDS011;57706;56.326;43.882;2023-08-06T13:38:51;2.80;;;1.60;;
70301;SDS011;57706;56.326;43.882;2023-08-06T13:41:17;6.13;;;1.83;;
70301;SDS011;57706;56.326;43.882;2023-08-06T13:43:43;5.68;;;1.73;;
70301;SDS011;57706;56.326;43.882;2023-08-06T13:46:10;3.78;;;1.80;;
70301;SDS011;57706;56.326;43.882;2023-08-06T13:48:45;2.38;;;1.80;;
70301;SDS011;57706;56.326;43.882;2023-08-06T13:51:13;4.45;;;1.90;;
70301;SDS011;57706;56.326;43.882;2023-08-06T13:53:40;3.00;;;1.73;;
70301;SDS011;57706;56.326;43.882;2023-08-06T13:56:08;4.40;;;1.70;;
70301;SDS011;57706;56.326;43.882;2023-08-06T13:58:37;4.78;;;2.03;;
70301;SDS011;57706;56.326;43.882;2023-08-06T14:01:04;3.03;;;1.80;;
70301;SDS011;57706;56.326;43.882;2023-08-06T14:03:30;2.75;;;1.75;;
70301;SDS011;57706;56.326;43.882;2023-08-06T14:05:56;2.05;;;1.67;;
70301;SDS011;57706;56.326;43.882;2023-08-06T14:08:23;4.53;;;1.95;;
70301;SDS011;57706;56.326;43.882;2023-08-06T14:10:50;3.65;;;1.88;;
70301;SDS011;57706;56.326;43.882;2023-08-06T14:13:16;3.20;;;1.77;;
70301;SDS011;57706;56.326;43.882;2023-08-06T14:15:43;9.18;;;1.95;;
70301;SDS011;57706;56.326;43.882;2023-08-06T14:18:13;5.15;;;2.00;;
70301;SDS011;57706;56.326;43.882;2023-08-06T14:20:43;2.22;;;1.73;;
70301;SDS011;57706;56.326;43.882;2023-08-06T14:23:10;2.55;;;1.80;;
70301;SDS011;57706;56.326;43.882;2023-08-06T14:25:37;6.13;;;1.67;;
70301;SDS011;57706;56.326;43.882;2023-08-06T14:28:03;3.20;;;1.52;;
70301;SDS011;57706;56.326;43.882;2023-08-06T14:30:32;6.22;;;1.70;;
70301;SDS011;57706;56.326;43.882;2023-08-06T14:32:59;4.32;;;1.70;;
70301;SDS011;57706;56.326;43.882;2023-08-06T14:35:26;3.08;;;2.00;;
70301;SDS011;57706;56.326;43.882;2023-08-06T14:37:52;9.13;;;2.03;;
70301;SDS011;57706;56.326;43.882;2023-08-06T14:40:18;8.65;;;1.77;;
70301;SDS011;57706;56.326;43.882;2023-08-06T14:42:44;3.00;;;1.60;;
70301;SDS011;57706;56.326;43.882;2023-08-06T14:45:10;3.92;;;2.00;;